createdAt,value
2018-09-02T00:00:57.250Z,82.061768
2018-09-02T00:02:13.148Z,81.896973
2018-09-02T00:03:29.172Z,81.860352
2018-09-02T00:04:45.100Z,81.555176
2018-09-02T00:06:01.135Z,81.756592
2018-09-02T00:07:17.274Z,81.658936
2018-09-02T00:08:33.312Z,81.756592
2018-09-02T00:09:49.232Z,81.658936
2018-09-02T00:11:05.127Z,81.860352
2018-09-02T00:12:21.043Z,81.958008
2018-09-02T00:13:37.065Z,82.202148
2018-09-02T00:14:52.976Z,82.061768
2018-09-02T00:16:08.983Z,81.756592
2018-09-02T00:17:24.962Z,81.25
2018-09-02T00:18:40.849Z,81.658936
2018-09-02T00:19:56.893Z,81.451416
2018-09-02T00:21:12.821Z,81.25
2018-09-02T00:22:28.729Z,81.25
2018-09-02T00:23:44.631Z,81.451416
2018-09-02T00:25:00.567Z,81.25
2018-09-02T00:26:16.558Z,81.25
2018-09-02T00:27:32.579Z,81.451416
2018-09-02T00:30:29.480Z,81.048584
2018-09-02T00:31:45.473Z,81.14624
2018-09-02T00:33:01.586Z,81.451416
2018-09-02T00:34:17.397Z,80.841064
2018-09-02T00:35:33.327Z,81.14624
2018-09-02T00:36:49.372Z,81.048584
2018-09-02T00:38:05.353Z,80.841064
2018-09-02T00:39:21.239Z,80.133057
2018-09-02T00:40:37.315Z,80.841064
2018-09-02T00:41:53.235Z,80.639648
2018-09-02T00:43:09.170Z,80.541992
2018-09-02T00:44:25.192Z,80.639648
2018-09-02T00:45:41.128Z,80.438232
2018-09-02T00:46:57.103Z,80.743408
2018-09-02T00:48:13.158Z,80.841064
2018-09-02T00:49:29.055Z,81.048584
2018-09-02T00:50:45.105Z,80.944824
2018-09-02T00:52:01.074Z,80.944824
2018-09-02T00:53:17.013Z,81.35376
2018-09-02T00:54:32.940Z,81.756592
2018-09-02T00:55:48.828Z,81.451416
2018-09-02T00:57:04.774Z,81.35376
2018-09-02T00:58:20.714Z,81.35376
2018-09-02T00:59:36.755Z,81.390381
2018-09-02T01:00:52.764Z,81.793213
2018-09-02T01:02:08.835Z,82.202148
2018-09-02T01:03:24.929Z,82.305908
2018-09-02T01:06:21.524Z,82.305908
2018-09-02T01:07:37.572Z,82.263184
2018-09-02T01:08:53.552Z,82.061768
2018-09-02T01:10:09.454Z,81.860352
2018-09-02T01:11:25.367Z,81.451416
2018-09-02T01:14:22.102Z,81.35376
2018-09-02T01:15:38.084Z,81.658936
2018-09-02T01:16:53.990Z,81.451416
2018-09-02T01:18:09.936Z,81.658936
2018-09-02T01:19:25.988Z,81.658936
2018-09-02T01:20:42.048Z,81.658936
2018-09-02T01:21:57.944Z,81.756592
2018-09-02T01:23:13.933Z,81.860352
2018-09-02T01:24:29.967Z,82.061768
2018-09-02T01:25:45.925Z,82.061768
2018-09-02T01:27:01.857Z,82.165527
2018-09-02T01:28:17.844Z,82.263184
2018-09-02T01:29:33.792Z,82.366943
2018-09-02T01:30:49.695Z,82.568359
2018-09-02T01:32:05.620Z,82.470703
2018-09-02T01:33:21.649Z,82.568359
2018-09-02T01:34:37.572Z,83.319092
2018-09-02T01:35:53.480Z,82.873535
2018-09-02T01:37:09.397Z,82.672119
2018-09-02T01:38:25.329Z,82.672119
2018-09-02T01:39:41.254Z,82.775879
2018-09-02T01:40:57.247Z,82.775879
2018-09-02T01:42:13.221Z,83.117676
2018-09-02T01:43:29.124Z,83.013916
2018-09-02T01:44:45.164Z,83.081055
2018-09-02T01:46:01.097Z,82.568359
2018-09-02T01:47:16.984Z,82.366943
2018-09-02T01:48:32.891Z,82.568359
2018-09-02T01:49:48.796Z,82.672119
2018-09-02T01:51:04.784Z,82.672119
2018-09-02T01:52:20.685Z,82.568359
2018-09-02T01:53:36.765Z,82.263184
2018-09-02T01:54:52.719Z,82.568359
2018-09-02T01:56:08.598Z,82.403564
2018-09-02T01:57:24.570Z,82.507324
2018-09-02T01:58:40.593Z,82.403564
2018-09-02T01:59:56.476Z,82.366943
2018-09-02T02:01:12.374Z,82.165527
2018-09-02T02:02:28.275Z,82.165527
2018-09-02T02:03:44.230Z,82.165527
2018-09-02T02:05:00.108Z,82.263184
2018-09-02T02:06:16.153Z,82.263184
2018-09-02T02:07:32.103Z,82.263184
2018-09-02T02:08:48.133Z,82.263184
2018-09-02T02:10:04.039Z,82.568359
2018-09-02T02:11:19.955Z,82.470703
2018-09-02T02:12:35.944Z,82.568359
2018-09-02T02:13:52.064Z,82.568359
2018-09-02T02:15:07.999Z,82.568359
2018-09-02T02:16:23.994Z,82.91626
2018-09-02T02:17:39.908Z,83.013916
2018-09-02T02:18:55.809Z,82.672119
2018-09-02T02:20:11.688Z,82.8125
2018-09-02T02:21:27.607Z,83.526611
2018-09-02T02:22:43.492Z,83.728027
2018-09-02T02:23:59.384Z,83.526611
2018-09-02T02:25:15.396Z,83.728027
2018-09-02T02:26:31.323Z,83.972168
2018-09-02T02:27:47.249Z,83.624268
2018-09-02T02:29:03.240Z,83.319092
2018-09-02T02:30:19.266Z,83.319092
2018-09-02T02:31:35.272Z,82.977295
2018-09-02T02:32:51.161Z,82.8125
2018-09-02T02:34:07.055Z,82.91626
2018-09-02T02:35:23.024Z,82.775879
2018-09-02T02:36:38.985Z,82.470703
2018-09-02T02:37:54.912Z,82.470703
2018-09-02T02:39:10.892Z,82.611084
2018-09-02T02:40:26.830Z,82.470703
2018-09-02T02:41:42.783Z,82.568359
2018-09-02T02:42:58.734Z,82.366943
2018-09-02T02:44:14.744Z,82.611084
2018-09-02T02:45:30.661Z,83.422852
2018-09-02T02:46:46.581Z,83.221436
2018-09-02T02:48:02.660Z,82.775879
2018-09-02T02:49:18.582Z,82.70874
2018-09-02T02:50:34.521Z,82.8125
2018-09-02T02:51:50.421Z,83.013916
2018-09-02T02:53:06.341Z,82.70874
2018-09-02T02:54:22.289Z,82.775879
2018-09-02T02:55:38.212Z,82.672119
2018-09-02T02:56:54.173Z,82.568359
2018-09-02T02:58:10.444Z,82.470703
2018-09-02T02:59:26.382Z,82.263184
2018-09-02T03:00:42.325Z,82.470703
2018-09-02T03:01:58.246Z,82.470703
2018-09-02T03:03:14.184Z,82.263184
2018-09-02T03:04:30.199Z,82.91626
2018-09-02T03:05:46.078Z,83.319092
2018-09-02T03:07:02.073Z,82.8125
2018-09-02T03:08:18.018Z,82.91626
2018-09-02T03:09:33.995Z,82.672119
2018-09-02T03:10:50.067Z,82.873535
2018-09-02T03:12:05.959Z,82.568359
2018-09-02T03:13:21.936Z,82.672119
2018-09-02T03:14:37.861Z,82.91626
2018-09-02T03:15:53.804Z,83.117676
2018-09-02T03:17:09.679Z,82.977295
2018-09-02T03:18:25.577Z,82.775879
2018-09-02T03:19:41.581Z,82.672119
2018-09-02T03:20:57.459Z,82.873535
2018-09-02T03:22:13.363Z,83.282471
2018-09-02T03:23:29.349Z,83.526611
2018-09-02T03:24:45.394Z,83.929443
2018-09-02T03:26:01.434Z,83.929443
2018-09-02T03:27:17.331Z,83.825684
2018-09-02T03:28:33.308Z,83.422852
2018-09-02T03:29:49.302Z,83.483887
2018-09-02T03:31:05.207Z,83.685303
2018-09-02T03:32:21.155Z,83.929443
2018-09-02T03:33:37.102Z,84.539795
2018-09-02T03:34:53.038Z,84.844971
2018-09-02T03:36:09.105Z,84.741211
2018-09-02T03:37:24.998Z,84.338379
2018-09-02T03:38:41.049Z,83.825684
2018-09-02T03:39:57.214Z,83.789062
2018-09-02T03:41:13.126Z,84.033203
2018-09-02T03:42:29.037Z,84.033203
2018-09-02T03:43:45.054Z,83.789062
2018-09-02T03:45:00.962Z,83.685303
2018-09-02T03:46:16.845Z,83.483887
2018-09-02T03:47:32.746Z,83.892822
2018-09-02T03:48:48.694Z,83.892822
2018-09-02T03:50:04.805Z,83.929443
2018-09-02T03:51:20.706Z,84.643555
2018-09-02T03:52:36.590Z,84.741211
2018-09-02T03:53:52.485Z,84.436035
2018-09-02T03:55:08.519Z,84.338379
2018-09-02T03:56:24.413Z,84.130859
2018-09-02T03:57:40.378Z,83.929443
2018-09-02T03:58:56.415Z,84.033203
2018-09-02T04:00:12.345Z,84.033203
2018-09-02T04:01:28.297Z,84.234619
2018-09-02T04:02:44.326Z,84.033203
2018-09-02T04:04:00.215Z,83.685303
2018-09-02T04:05:16.099Z,83.483887
2018-09-02T04:06:32.058Z,83.380127
2018-09-02T04:07:48.065Z,83.380127
2018-09-02T04:09:03.957Z,83.483887
2018-09-02T04:10:19.988Z,83.789062
2018-09-02T04:11:36.038Z,83.990479
2018-09-02T04:12:52.082Z,83.685303
2018-09-02T04:14:08.044Z,84.130859
2018-09-02T04:15:23.920Z,84.197998
2018-09-02T04:16:39.852Z,84.094238
2018-09-02T04:17:56.189Z,84.094238
2018-09-02T04:19:12.101Z,84.094238
2018-09-02T04:20:28.044Z,84.094238
2018-09-02T04:21:43.962Z,84.197998
2018-09-02T04:22:59.874Z,84.094238
2018-09-02T04:24:15.825Z,83.892822
2018-09-02T04:25:31.741Z,84.130859
2018-09-02T04:26:47.703Z,83.892822
2018-09-02T04:28:03.791Z,84.234619
2018-09-02T04:29:19.703Z,84.643555
2018-09-02T04:30:35.699Z,84.643555
2018-09-02T04:31:51.565Z,84.436035
2018-09-02T04:33:07.460Z,84.338379
2018-09-02T04:34:23.393Z,84.741211
2018-09-02T04:37:19.943Z,84.338379
2018-09-02T04:38:35.833Z,84.234619
2018-09-02T04:39:51.724Z,84.436035
2018-09-02T04:41:07.614Z,84.539795
2018-09-02T04:42:23.569Z,84.234619
2018-09-02T04:43:39.566Z,83.929443
2018-09-02T04:44:55.607Z,84.338379
2018-09-02T04:46:11.654Z,84.539795
2018-09-02T04:47:27.554Z,84.338379
2018-09-02T04:48:43.469Z,84.338379
2018-09-02T04:52:55.955Z,84.338379
2018-09-02T04:54:12.037Z,84.338379
2018-09-02T04:55:28.020Z,84.643555
2018-09-02T04:56:43.927Z,84.375
2018-09-02T04:57:59.857Z,84.130859
2018-09-02T04:59:15.793Z,83.825684
2018-09-02T05:00:31.846Z,83.728027
2018-09-02T05:01:47.908Z,83.929443
2018-09-02T05:03:03.867Z,83.728027
2018-09-02T05:04:19.935Z,84.069824
2018-09-02T05:05:36.069Z,83.972168
2018-09-02T05:06:51.972Z,84.375
2018-09-02T05:08:08.096Z,84.173584
2018-09-02T05:09:24.027Z,83.868408
2018-09-02T05:10:40.129Z,83.929443
2018-09-02T05:11:56.106Z,84.173584
2018-09-02T05:13:12.041Z,84.130859
2018-09-02T05:14:28.037Z,83.929443
2018-09-02T05:15:44.186Z,84.277344
2018-09-02T05:17:00.224Z,84.277344
2018-09-02T05:18:16.276Z,84.033203
2018-09-02T05:19:32.328Z,83.624268
2018-09-02T05:20:48.227Z,83.728027
2018-09-02T05:22:04.155Z,83.929443
2018-09-02T05:23:20.064Z,83.422852
2018-09-02T05:24:36.029Z,83.117676
2018-09-02T05:25:52.045Z,83.117676
2018-09-02T05:27:07.949Z,83.422852
2018-09-02T05:28:23.855Z,83.221436
2018-09-02T05:29:39.752Z,83.526611
2018-09-02T05:30:55.711Z,83.929443
2018-09-02T05:32:11.633Z,83.825684
2018-09-02T05:33:27.537Z,83.526611
2018-09-02T05:36:25.351Z,83.319092
2018-09-02T05:37:41.363Z,83.221436
2018-09-02T05:38:57.301Z,83.221436
2018-09-02T05:40:13.252Z,83.221436
2018-09-02T05:41:29.158Z,83.319092
2018-09-02T05:42:45.246Z,83.319092
2018-09-02T05:44:01.390Z,83.422852
2018-09-02T05:45:17.504Z,83.319092
2018-09-02T05:46:33.396Z,83.117676
2018-09-02T05:47:49.289Z,83.221436
2018-09-02T05:49:06.184Z,83.422852
2018-09-02T05:50:22.076Z,83.422852
2018-09-02T05:51:38.057Z,83.081055
2018-09-02T05:52:54.123Z,82.977295
2018-09-02T05:54:10.022Z,83.319092
2018-09-02T05:55:26.014Z,83.526611
2018-09-02T05:56:42.035Z,83.081055
2018-09-02T05:57:57.946Z,83.117676
2018-09-02T05:59:13.856Z,83.624268
2018-09-02T06:00:29.778Z,83.526611
2018-09-02T06:01:45.818Z,83.422852
2018-09-02T06:03:01.746Z,83.422852
2018-09-02T06:04:17.735Z,83.526611
2018-09-02T06:05:33.830Z,83.624268
2018-09-02T06:06:50.889Z,83.624268
2018-09-02T06:08:06.949Z,83.624268
2018-09-02T06:09:22.835Z,83.929443
2018-09-02T06:10:38.805Z,84.033203
2018-09-02T06:11:54.853Z,83.728027
2018-09-02T06:13:10.828Z,83.483887
2018-09-02T06:14:26.744Z,83.380127
2018-09-02T06:15:42.680Z,82.977295
2018-09-02T06:16:58.658Z,83.282471
2018-09-02T06:19:55.298Z,83.587646
2018-09-02T06:21:11.289Z,83.587646
2018-09-02T06:22:27.229Z,83.282471
2018-09-02T06:23:43.166Z,83.081055
2018-09-02T06:24:59.070Z,82.873535
2018-09-02T06:26:14.929Z,82.568359
2018-09-02T06:27:30.896Z,82.672119
2018-09-02T06:28:46.784Z,82.775879
2018-09-02T06:30:02.794Z,82.873535
2018-09-02T06:31:18.678Z,82.873535
2018-09-02T06:32:34.570Z,82.568359
2018-09-02T06:33:50.595Z,82.366943
2018-09-02T06:35:06.518Z,82.226562
2018-09-02T06:36:22.511Z,82.122803
2018-09-02T06:37:38.580Z,82.470703
2018-09-02T06:38:54.523Z,82.366943
2018-09-02T06:40:10.408Z,82.635498
2018-09-02T06:44:22.953Z,81.82373
2018-09-02T06:45:39.006Z,81.616211
2018-09-02T06:46:54.982Z,81.176758
2018-09-02T06:48:11.048Z,80.969238
2018-09-02T06:49:27.138Z,81.176758
2018-09-02T06:52:24.872Z,81.005859
2018-09-02T06:53:40.945Z,80.767822
2018-09-02T06:54:56.985Z,80.462646
2018-09-02T06:57:53.939Z,80.566406
2018-09-02T06:59:10.158Z,80.499268
2018-09-02T07:00:26.119Z,80.26123
2018-09-02T07:01:42.176Z,80.059814
2018-09-02T07:02:58.206Z,79.956055
2018-09-02T07:04:14.288Z,79.754639
2018-09-02T07:05:30.272Z,79.754639
2018-09-02T07:06:46.336Z,79.553223
2018-09-02T07:08:02.259Z,79.650879
2018-09-02T07:09:18.335Z,79.956055
2018-09-02T07:10:34.339Z,80.059814
2018-09-02T07:11:50.257Z,79.754639
2018-09-02T07:13:06.234Z,79.614258
2018-09-02T07:14:22.257Z,79.412842
2018-09-02T07:15:38.129Z,79.614258
2018-09-02T07:16:54.049Z,80.059814
2018-09-02T07:18:09.948Z,80.157471
2018-09-02T07:19:25.948Z,80.157471
2018-09-02T07:20:41.887Z,80.36499
2018-09-02T07:21:57.928Z,80.566406
2018-09-02T07:23:14.836Z,80.664062
2018-09-02T07:24:30.876Z,80.767822
2018-09-02T07:25:47.797Z,80.462646
2018-09-02T07:27:03.772Z,80.767822
2018-09-02T07:28:19.804Z,80.969238
2018-09-02T07:29:35.807Z,80.767822
2018-09-02T07:30:51.809Z,80.462646
2018-09-02T07:32:07.744Z,80.059814
2018-09-02T07:33:23.688Z,80.566406
2018-09-02T07:34:39.592Z,80.462646
2018-09-02T07:35:55.554Z,80.36499
2018-09-02T07:37:11.563Z,80.059814
2018-09-02T07:38:27.530Z,79.919434
2018-09-02T07:39:43.580Z,80.01709
2018-09-02T07:40:59.552Z,79.815674
2018-09-02T07:42:15.583Z,80.12085
2018-09-02T07:43:31.675Z,80.224609
2018-09-02T07:44:47.574Z,80.322266
2018-09-02T07:46:03.579Z,80.224609
2018-09-02T07:47:19.534Z,80.566406
2018-09-02T07:48:35.541Z,80.462646
2018-09-02T07:49:51.732Z,80.462646
2018-09-02T07:51:07.689Z,80.322266
2018-09-02T07:52:23.724Z,80.322266
2018-09-02T07:53:39.863Z,79.882812
2018-09-02T07:54:55.813Z,79.675293
2018-09-02T07:56:11.886Z,79.675293
2018-09-02T07:57:27.835Z,79.779053
2018-09-02T07:58:43.809Z,79.675293
2018-09-02T07:59:59.841Z,79.473877
2018-09-02T08:01:15.824Z,79.473877
2018-09-02T08:02:31.915Z,79.23584
2018-09-02T08:03:48.814Z,78.869629
2018-09-02T08:05:04.753Z,79.779053
2018-09-02T08:06:20.750Z,78.729248
2018-09-02T08:07:36.705Z,78.118896
2018-09-02T08:08:52.804Z,78.222656
2018-09-02T08:10:08.781Z,78.527832
2018-09-02T08:13:05.573Z,78.222656
2018-09-02T08:14:21.601Z,78.662109
2018-09-02T08:15:37.790Z,78.765869
2018-09-02T08:16:53.989Z,78.564453
2018-09-02T08:18:10.099Z,78.363037
2018-09-02T08:19:26.085Z,78.118896
2018-09-02T08:20:42.202Z,77.819824
2018-09-02T08:21:58.259Z,77.679443
2018-09-02T08:23:14.824Z,77.679443
2018-09-02T08:24:31.870Z,77.23999
2018-09-02T08:25:48.046Z,76.934814
2018-09-02T08:27:04.141Z,76.324463
2018-09-02T08:28:20.273Z,75.683594
2018-09-02T08:29:36.222Z,75.280762
2018-09-02T08:30:52.334Z,75.073242
2018-09-02T08:32:08.269Z,74.536133
2018-09-02T08:33:24.320Z,74.432373
2018-09-02T08:34:40.302Z,74.499512
2018-09-02T08:35:56.556Z,73.486328
2018-09-02T08:37:12.585Z,72.644043
2018-09-02T08:38:28.549Z,72.442627
2018-09-02T08:39:44.508Z,72.241211
2018-09-02T08:41:00.480Z,72.546387
2018-09-02T08:42:16.468Z,71.600342
2018-09-02T08:43:32.414Z,71.30127
2018-09-02T08:44:48.565Z,71.19751
2018-09-02T08:46:04.512Z,71.099854
2018-09-02T08:47:20.610Z,70.996094
2018-09-02T08:48:36.650Z,70.928955
2018-09-02T08:49:52.672Z,71.636963
2018-09-02T08:51:08.704Z,71.533203
2018-09-02T08:52:24.648Z,71.838379
2018-09-02T08:53:40.635Z,72.003174
2018-09-02T08:54:56.604Z,72.003174
2018-09-02T08:56:12.545Z,71.801758
2018-09-02T08:57:28.542Z,72.143555
2018-09-02T08:58:44.833Z,72.30835
2018-09-02T09:00:00.820Z,72.143555
2018-09-02T09:01:16.984Z,72.442627
2018-09-02T09:02:32.943Z,72.375488
2018-09-02T09:03:48.917Z,72.680664
2018-09-02T09:05:05.016Z,72.479248
2018-09-02T09:06:20.992Z,72.546387
2018-09-02T09:07:37.082Z,71.734619
2018-09-02T09:08:53.240Z,71.19751
2018-09-02T09:10:09.119Z,70.996094
2018-09-02T09:11:25.129Z,70.892334
2018-09-02T09:12:41.255Z,71.19751
2018-09-02T09:13:57.258Z,71.466064
2018-09-02T09:15:13.283Z,70.825195
2018-09-02T09:16:29.311Z,70.123291
2018-09-02T09:17:45.395Z,69.989014
2018-09-02T09:19:01.405Z,69.952393
2018-09-02T09:20:17.379Z,69.281006
2018-09-02T09:21:33.499Z,69.519043
2018-09-02T09:22:49.557Z,69.616699
2018-09-02T09:24:05.501Z,70.6604
2018-09-02T09:25:21.467Z,70.892334
2018-09-02T09:26:37.508Z,71.502686
2018-09-02T09:27:53.489Z,72.210693
2018-09-02T09:29:09.610Z,71.905518
2018-09-02T09:30:25.834Z,72.003174
2018-09-02T09:31:41.805Z,72.106934
2018-09-02T09:32:57.720Z,72.143555
2018-09-02T09:34:13.725Z,72.442627
2018-09-02T09:35:29.687Z,72.143555
2018-09-02T09:36:45.779Z,72.241211
2018-09-02T09:38:01.903Z,72.644043
2018-09-02T09:39:17.980Z,72.442627
2018-09-02T09:40:33.956Z,72.039795
2018-09-02T09:43:30.340Z,70.996094
2018-09-02T09:44:46.326Z,70.959473
2018-09-02T09:46:02.310Z,70.458984
2018-09-02T09:47:18.229Z,70.153809
2018-09-02T09:48:34.313Z,69.549561
2018-09-02T09:49:50.368Z,70.153809
2018-09-02T09:51:06.637Z,70.153809
2018-09-02T09:52:22.789Z,69.647217
2018-09-02T09:53:38.750Z,69.311523
2018-09-02T09:54:54.748Z,68.908691
2018-09-02T09:56:10.794Z,68.878174
2018-09-02T09:57:26.749Z,68.774414
2018-09-02T09:58:42.810Z,68.475342
2018-09-02T09:59:58.803Z,68.371582
2018-09-02T10:01:14.741Z,68.475342
2018-09-02T10:02:30.824Z,68.981934
2018-09-02T10:03:47.670Z,68.908691
2018-09-02T10:05:04.092Z,69.110107
2018-09-02T10:06:20.150Z,69.519043
2018-09-02T10:07:36.190Z,69.616699
2018-09-02T10:08:52.186Z,69.818115
2018-09-02T10:10:08.263Z,70.056152
2018-09-02T10:11:24.361Z,70.019531
2018-09-02T10:12:40.435Z,69.445801
2018-09-02T10:13:56.628Z,70.056152
2018-09-02T10:15:12.671Z,70.556641
2018-09-02T10:16:28.751Z,70.153809
2018-09-02T10:17:44.694Z,70.153809
2018-09-02T10:19:00.805Z,70.056152
2018-09-02T10:20:16.858Z,70.153809
2018-09-02T10:21:33.028Z,70.556641
2018-09-02T10:22:49.036Z,70.391846
2018-09-02T10:24:05.015Z,70.996094
2018-09-02T10:25:21.060Z,71.398926
2018-09-02T10:26:37.146Z,71.533203
2018-09-02T10:27:53.227Z,72.039795
2018-09-02T10:29:09.173Z,72.344971
2018-09-02T10:30:25.308Z,72.747803
2018-09-02T10:31:41.272Z,72.845459
2018-09-02T10:32:57.309Z,72.644043
2018-09-02T10:34:13.433Z,72.845459
2018-09-02T10:35:29.450Z,72.949219
2018-09-02T10:36:45.482Z,72.644043
2018-09-02T10:38:01.437Z,72.344971
2018-09-02T10:39:17.564Z,72.30835
2018-09-02T10:40:33.535Z,71.398926
2018-09-02T10:41:49.534Z,70.593262
2018-09-02T10:43:05.634Z,70.794678
2018-09-02T10:44:21.708Z,71.166992
2018-09-02T10:45:37.756Z,70.6604
2018-09-02T10:46:53.716Z,70.959473
2018-09-02T10:48:09.769Z,70.825195
2018-09-02T10:49:25.758Z,72.442627
2018-09-02T10:50:41.812Z,70.825195
2018-09-02T10:51:57.990Z,71.533203
2018-09-02T10:53:13.982Z,71.77124
2018-09-02T10:54:30.086Z,71.368408
2018-09-02T10:55:46.007Z,70.324707
2018-09-02T10:57:01.947Z,70.019531
2018-09-02T10:58:17.988Z,70.220947
2018-09-02T10:59:34.012Z,69.519043
2018-09-02T11:00:50.135Z,70.324707
2018-09-02T11:02:06.154Z,72.039795
2018-09-02T11:03:22.091Z,74.261475
2018-09-02T11:04:39.288Z,74.42627
2018-09-02T11:05:55.373Z,71.502686
2018-09-02T11:07:11.543Z,71.466064
2018-09-02T11:08:27.668Z,71.868896
2018-09-02T11:09:43.715Z,70.6604
2018-09-02T11:10:59.804Z,70.623779
2018-09-02T11:12:15.825Z,68.713379
2018-09-02T11:13:31.954Z,69.519043
2018-09-02T11:16:28.781Z,68.847656
2018-09-02T11:17:44.758Z,69.250488
2018-09-02T11:19:00.813Z,67.907715
2018-09-02T11:20:16.841Z,67.108154
2018-09-02T11:21:32.795Z,68.078613
2018-09-02T11:22:48.756Z,66.973877
2018-09-02T11:24:04.798Z,66.271973
2018-09-02T11:25:20.900Z,66.571045
2018-09-02T11:26:37.016Z,67.071533
2018-09-02T11:27:53.142Z,65.966797
2018-09-02T11:29:09.245Z,65.936279
2018-09-02T11:30:25.338Z,64.056396
2018-09-02T11:31:41.446Z,65.765381
2018-09-02T11:32:58.821Z,65.869141
2018-09-02T11:34:14.766Z,65.533447
2018-09-02T11:35:30.774Z,64.196777
2018-09-02T11:39:43.522Z,63.262939
2018-09-02T11:40:59.592Z,63.433838
2018-09-02T11:42:15.609Z,62.426758
2018-09-02T11:43:31.516Z,62.82959
2018-09-02T11:44:47.591Z,63.330078
2018-09-02T11:46:03.506Z,63.031006
2018-09-02T11:47:19.574Z,63.562012
2018-09-02T11:48:35.505Z,63.897705
2018-09-02T11:49:52.535Z,65.234375
2018-09-02T11:51:08.534Z,66.070557
2018-09-02T11:52:24.620Z,66.369629
2018-09-02T11:53:40.651Z,66.503906
2018-09-02T11:54:56.752Z,66.601562
2018-09-02T11:56:12.858Z,66.229248
2018-09-02T11:57:28.952Z,67.541504
2018-09-02T11:58:44.891Z,67.340088
2018-09-02T12:00:01.009Z,67.63916
2018-09-02T12:01:17.023Z,67.071533
2018-09-02T12:02:33.105Z,67.572021
2018-09-02T12:03:49.208Z,66.564941
2018-09-02T12:05:05.227Z,66.467285
2018-09-02T12:12:40.452Z,67.333984
2018-09-02T12:13:56.488Z,67.5354
2018-09-02T12:15:12.435Z,68.444824
2018-09-02T12:16:28.490Z,68.64624
2018-09-02T12:17:44.554Z,68.444824
2018-09-02T12:20:41.270Z,69.348145
2018-09-02T12:21:57.275Z,69.250488
2018-09-02T12:23:13.287Z,69.549561
2018-09-02T12:26:09.946Z,69.384766
2018-09-02T12:27:25.958Z,69.787598
2018-09-02T12:30:22.434Z,69.787598
2018-09-02T12:31:38.568Z,71.77124
2018-09-02T12:32:54.515Z,69.549561
2018-09-02T12:34:10.551Z,69.586182
2018-09-02T12:35:26.490Z,69.683838
2018-09-02T12:36:42.554Z,69.885254
2018-09-02T12:37:58.621Z,69.989014
2018-09-02T12:39:14.590Z,69.885254
2018-09-02T12:40:30.655Z,70.08667
2018-09-02T12:41:46.633Z,69.989014
2018-09-02T12:43:02.717Z,70.08667
2018-09-02T12:44:18.851Z,70.220947
2018-09-02T12:45:34.776Z,70.123291
2018-09-02T12:46:51.952Z,70.623779
2018-09-02T12:48:08.732Z,70.928955
2018-09-02T12:49:24.693Z,70.727539
2018-09-02T12:50:40.805Z,70.526123
2018-09-02T12:51:56.760Z,70.727539
2018-09-02T12:53:13.390Z,70.623779
2018-09-02T12:54:29.628Z,70.825195
2018-09-02T12:55:45.787Z,71.166992
2018-09-02T12:57:02.438Z,71.466064
2018-09-02T12:58:18.447Z,71.569824
2018-09-02T12:59:34.641Z,71.66748
2018-09-02T13:00:51.435Z,71.636963
2018-09-02T13:02:07.688Z,72.174072
2018-09-02T13:03:23.799Z,72.576904
2018-09-02T13:04:39.955Z,72.88208
2018-09-02T13:05:56.117Z,73.016357
2018-09-02T13:07:12.133Z,72.88208
2018-09-02T13:08:28.346Z,72.576904
2018-09-02T13:09:44.434Z,72.479248
2018-09-02T13:11:02.468Z,72.680664
2018-09-02T13:12:19.515Z,72.77832
2018-09-02T13:13:36.277Z,72.680664
2018-09-02T13:14:52.413Z,72.680664
2018-09-02T13:16:08.440Z,72.77832
2018-09-02T13:17:24.538Z,72.88208
2018-09-02T13:18:40.492Z,72.979736
2018-09-02T13:19:56.588Z,73.486328
2018-09-02T13:21:12.581Z,73.181152
2018-09-02T13:24:09.250Z,73.083496
2018-09-02T13:25:25.414Z,72.680664
2018-09-02T13:26:41.431Z,72.576904
2018-09-02T13:27:57.448Z,72.680664
2018-09-02T13:29:13.652Z,72.77832
2018-09-02T13:30:29.626Z,72.77832
2018-09-02T13:31:45.699Z,73.114014
2018-09-02T13:33:01.907Z,73.016357
2018-09-02T13:34:18.182Z,73.083496
2018-09-02T13:35:34.184Z,73.016357
2018-09-02T13:36:50.269Z,73.217773
2018-09-02T13:38:06.493Z,73.486328
2018-09-02T13:39:22.537Z,73.382568
2018-09-02T13:42:19.059Z,73.486328
2018-09-02T13:43:35.045Z,73.284912
2018-09-02T13:44:51.532Z,73.114014
2018-09-02T13:46:07.595Z,73.217773
2018-09-02T13:47:23.524Z,73.083496
2018-09-02T13:48:39.586Z,72.814941
2018-09-02T13:49:55.684Z,73.321533
2018-09-02T13:51:11.783Z,73.217773
2018-09-02T13:54:09.332Z,73.321533
2018-09-02T13:55:25.387Z,73.822021
2018-09-02T13:56:41.485Z,73.822021
2018-09-02T13:57:57.540Z,73.620605
2018-09-02T13:59:13.681Z,73.620605
2018-09-02T14:00:29.853Z,73.620605
2018-09-02T14:01:45.983Z,73.724365
2018-09-02T14:03:02.433Z,73.925781
2018-09-02T14:04:18.502Z,73.620605
2018-09-02T14:05:34.500Z,73.620605
2018-09-02T14:06:50.558Z,73.620605
2018-09-02T14:08:06.774Z,73.822021
2018-09-02T14:11:03.564Z,73.620605
2018-09-02T14:12:19.547Z,73.620605
2018-09-02T14:13:35.494Z,73.522949
2018-09-02T14:14:51.554Z,73.724365
2018-09-02T14:16:07.515Z,73.925781
2018-09-02T14:17:23.550Z,73.724365
2018-09-02T14:18:39.722Z,73.620605
2018-09-02T14:19:55.801Z,73.419189
2018-09-02T14:21:12.128Z,73.620605
2018-09-02T14:22:28.162Z,73.419189
2018-09-02T14:23:44.214Z,73.822021
2018-09-02T14:25:00.183Z,73.620605
2018-09-02T14:26:16.204Z,73.522949
2018-09-02T14:27:32.245Z,73.522949
2018-09-02T14:28:48.323Z,73.114014
2018-09-02T14:30:04.520Z,73.016357
2018-09-02T14:31:20.525Z,73.321533
2018-09-02T14:34:18.356Z,73.217773
2018-09-02T14:35:34.325Z,73.382568
2018-09-02T14:36:50.362Z,73.284912
2018-09-02T14:38:06.421Z,73.284912
2018-09-02T14:39:22.606Z,72.949219
2018-09-02T14:40:38.621Z,72.540283
2018-09-02T14:41:54.814Z,72.137451
2018-09-02T14:43:10.954Z,72.271729
2018-09-02T14:44:27.038Z,72.576904
2018-09-02T14:45:43.081Z,72.479248
2018-09-02T14:46:59.336Z,72.576904
2018-09-02T14:48:15.402Z,72.88208
2018-09-02T14:49:31.465Z,73.181152
2018-09-02T14:50:47.528Z,73.083496
2018-09-02T14:52:03.529Z,73.284912
2018-09-02T14:53:19.587Z,73.284912
2018-09-02T14:54:35.584Z,73.382568
2018-09-02T14:55:51.659Z,73.083496
2018-09-02T14:57:07.752Z,72.979736
2018-09-02T14:58:23.776Z,72.979736
2018-09-02T14:59:39.794Z,73.083496
2018-09-02T15:00:55.824Z,73.284912
2018-09-02T15:02:11.817Z,73.522949
2018-09-02T15:03:27.715Z,73.925781
2018-09-02T15:04:43.761Z,73.687744
2018-09-02T15:05:59.791Z,73.99292
2018-09-02T15:07:15.842Z,74.090576
2018-09-02T15:08:31.987Z,74.291992
2018-09-02T15:09:48.329Z,74.023438
2018-09-02T15:11:04.413Z,74.432373
2018-09-02T15:12:20.417Z,73.925781
2018-09-02T15:13:36.383Z,73.791504
2018-09-02T15:14:52.374Z,73.687744
2018-09-02T15:16:08.525Z,73.687744
2018-09-02T15:17:24.551Z,73.583984